Time;durP1;ratioP1;P1;durP2;ratioP2;P2;SDS_P1;SDS_P2;PMS_P1;PMS_P2;Temp;Humidity;BMP_temperature;BMP_pressure;BME280_temperature;BME280_humidity;BME280_pressure;Samples;Min_cycle;Max_cycle;Signal;HPM_P1;HPM_P2
2024/03/03 00:01:58;;;;;;;;;;;;;;;;;;5068602;28;19990;-67
2024/03/03 00:04:24;;;;;;;;;;;;;;;;;;5070395;28;19925;-67
2024/03/03 00:06:50;;;;;;;;;;;;;;;;;;5069735;28;20007;-67
2024/03/03 00:09:17;;;;;;;;;;;;;;;;;;5071830;28;19943;-67
2024/03/03 00:11:43;;;;;;;;;;;;;;;;;;5063711;28;19928;-67
2024/03/03 00:14:09;;;;;;;;;;;;;;;;;;5066755;28;20396;-67
2024/03/03 00:16:35;;;;;;;;;;;;;;;;;;5064680;28;20452;-67
2024/03/03 00:19:01;;;;;;;;;;;;;;;;;;5069817;28;19929;-67
2024/03/03 00:21:27;;;;;;;;;;;;;;;;;;5056534;28;20269;-67
2024/03/03 00:23:53;;;;;;;;;;;;;;;;;;5070152;28;19920;-67
2024/03/03 00:26:19;;;;;;;;;;;;;;;;;;5069338;28;19928;-67
2024/03/03 00:28:45;;;;;;;;;;;;;;;;;;5070685;28;19925;-67
2024/03/03 00:31:11;;;;;;;;;;;;;;;;;;5067769;28;19920;-67
2024/03/03 00:33:37;;;;;;;;;;;;;;;;;;5070246;28;19921;-66
2024/03/03 00:36:05;;;;;;;;;;;;;;;;;;5067522;28;19930;-66
2024/03/03 00:38:34;;;;;;;;;;;;;;;;;;5069465;28;19925;-66
2024/03/03 00:41:00;;;;;;;;;;;;;;;;;;5084764;28;19921;-66
2024/03/03 00:43:26;;;;;;;;;;;;;;;;;;5071636;28;19920;-67
2024/03/03 00:45:52;;;;;;;;;;;;;;;;;;5068249;28;19947;-66
2024/03/03 00:48:18;;;;;;;;;;;;;;;;;;5069773;28;19962;-66
2024/03/03 00:50:44;;;;;;;;;;;;;;;;;;5070070;28;19924;-66
2024/03/03 00:53:10;;;;;;;;;;;;;;;;;;5066545;28;19921;-66
2024/03/03 00:55:36;;;;;;;;;;;;;;;;;;5069039;28;19925;-66
2024/03/03 00:58:02;;;;;;;;;;;;;;;;;;5066748;28;20401;-67
2024/03/03 01:00:28;;;;;;;;;;;;;;;;;;5062269;28;19928;-67
2024/03/03 01:02:54;;;;;;;;;;;;;;;;;;5066150;28;19921;-67
2024/03/03 01:05:20;;;;;;;;;;;;;;;;;;5064661;28;20389;-67
2024/03/03 01:07:46;;;;;;;;;;;;;;;;;;5063118;28;19929;-67
2024/03/03 01:10:12;;;;;;;;;;;;;;;;;;5065693;28;19924;-67
2024/03/03 01:12:38;;;;;;;;;;;;;;;;;;5065346;28;19927;-67
2024/03/03 01:15:05;;;;;;;;;;;;;;;;;;5060090;28;19924;-66
2024/03/03 01:17:31;;;;;;;;;;;;;;;;;;5063628;28;20042;-67
2024/03/03 01:19:57;;;;;;;;;;;;;;;;;;5065988;28;19924;-67
2024/03/03 01:22:23;;;;;;;;;;;;;;;;;;5064596;28;19939;-68
2024/03/03 01:24:49;;;;;;;;;;;;;;;;;;5065366;28;19928;-67
2024/03/03 01:27:16;;;;;;;;;;;;;;;;;;5051221;28;20113;-67
2024/03/03 01:29:42;;;;;;;;;;;;;;;;;;5066402;28;20133;-67
2024/03/03 01:32:08;;;;;;;;;;;;;;;;;;5064207;28;19935;-67
2024/03/03 01:34:35;;;;;;;;;;;;;;;;;;5051577;28;20387;-67
2024/03/03 01:37:01;;;;;;;;;;;;;;;;;;5069529;28;20033;-67
2024/03/03 01:39:27;;;;;;;;;;;;;;;;;;5063944;28;19924;-67
2024/03/03 01:41:53;;;;;;;;;;;;;;;;;;5068379;28;20297;-67
2024/03/03 01:44:18;;;;;;;;;;;;;;;;;;5074273;28;19995;-67
2024/03/03 01:46:44;;;;;;;;;;;;;;;;;;5072634;28;20444;-67
2024/03/03 01:49:10;;;;;;;;;;;;;;;;;;5070744;28;19943;-67
2024/03/03 01:51:36;;;;;;;;;;;;;;;;;;5070447;28;20019;-67
2024/03/03 01:54:04;;;;;;;;;;;;;;;;;;5069483;28;19924;-66
2024/03/03 01:56:30;;;;;;;;;;;;;;;;;;5068710;28;20677;-67
2024/03/03 01:58:56;;;;;;;;;;;;;;;;;;5072590;28;19944;-67
2024/03/03 02:01:22;;;;;;;;;;;;;;;;;;5061610;28;19924;-66
2024/03/03 02:03:47;;;;;;;;;;;;;;;;;;5071404;28;20487;-67
2024/03/03 02:06:13;;;;;;;;;;;;;;;;;;5071598;28;19932;-67
2024/03/03 02:08:39;;;;;;;;;;;;;;;;;;5071192;28;20051;-68
2024/03/03 02:11:06;;;;;;;;;;;;;;;;;;5071630;28;19920;-68
2024/03/03 02:13:31;;;;;;;;;;;;;;;;;;5071745;28;19921;-66
2024/03/03 02:15:57;;;;;;;;;;;;;;;;;;5069832;28;19931;-65
2024/03/03 02:18:23;;;;;;;;;;;;;;;;;;5072645;28;19982;-67
2024/03/03 02:20:49;;;;;;;;;;;;;;;;;;5071457;28;19921;-66
2024/03/03 02:23:15;;;;;;;;;;;;;;;;;;5072226;28;19924;-67
2024/03/03 02:25:41;;;;;;;;;;;;;;;;;;5070630;28;20299;-67
2024/03/03 02:28:07;;;;;;;;;;;;;;;;;;5072150;28;19921;-67
2024/03/03 02:30:33;;;;;;;;;;;;;;;;;;5071729;28;20362;-67
2024/03/03 02:32:59;;;;;;;;;;;;;;;;;;5073210;28;19931;-67
2024/03/03 02:35:25;;;;;;;;;;;;;;;;;;5072499;28;19973;-67
2024/03/03 02:37:51;;;;;;;;;;;;;;;;;;5073519;28;19942;-67
2024/03/03 02:40:17;;;;;;;;;;;;;;;;;;5068821;28;19925;-67
2024/03/03 02:42:43;;;;;;;;;;;;;;;;;;5073395;28;19928;-67
2024/03/03 02:45:09;;;;;;;;;;;;;;;;;;5071053;28;19927;-67
2024/03/03 02:47:35;;;;;;;;;;;;;;;;;;5070731;28;19939;-66
2024/03/03 02:50:02;;;;;;;;;;;;;;;;;;5069095;28;20524;-67
2024/03/03 02:52:28;;;;;;;;;;;;;;;;;;5072937;28;19924;-67
2024/03/03 02:54:53;;;;;;;;;;;;;;;;;;5070926;28;20294;-67
2024/03/03 02:57:19;;;;;;;;;;;;;;;;;;5069717;28;19925;-67
2024/03/03 02:59:45;;;;;;;;;;;;;;;;;;5065666;28;19929;-67
2024/03/03 03:02:11;;;;;;;;;;;;;;;;;;5065988;28;19935;-67
2024/03/03 03:04:37;;;;;;;;;;;;;;;;;;5069682;28;19921;-67
2024/03/03 03:07:03;;;;;;;;;;;;;;;;;;5072544;28;19960;-67
2024/03/03 03:09:29;;;;;;;;;;;;;;;;;;5070036;28;19926;-67
2024/03/03 03:11:55;;;;;;;;;;;;;;;;;;5063278;28;20259;-67
2024/03/03 03:14:24;;;;;;;;;;;;;;;;;;5072205;28;20014;-67
2024/03/03 03:16:50;;;;;;;;;;;;;;;;;;5070343;28;20456;-68
2024/03/03 03:19:16;;;;;;;;;;;;;;;;;;5072941;28;20031;-68
2024/03/03 03:21:42;;;;;;;;;;;;;;;;;;5074873;28;20026;-67
2024/03/03 03:24:08;;;;;;;;;;;;;;;;;;5072593;28;19927;-67
2024/03/03 03:26:34;;;;;;;;;;;;;;;;;;5077337;28;19924;-67
2024/03/03 03:29:02;;;;;;;;;;;;;;;;;;5068369;28;19920;-67
2024/03/03 03:31:27;;;;;;;;;;;;;;;;;;5071918;28;20257;-67
2024/03/03 03:33:54;;;;;;;;;;;;;;;;;;5071127;28;20427;-67
2024/03/03 03:36:20;;;;;;;;;;;;;;;;;;5076755;28;19920;-67
2024/03/03 03:38:45;;;;;;;;;;;;;;;;;;5081536;28;19929;-67
2024/03/03 03:41:11;;;;;;;;;;;;;;;;;;5077187;28;19937;-68
2024/03/03 03:43:37;;;;;;;;;;;;;;;;;;5077464;28;19929;-67
2024/03/03 03:46:03;;;;;;;;;;;;;;;;;;5068095;28;19927;-67
2024/03/03 03:48:29;;;;;;;;;;;;;;;;;;5070763;28;19947;-67
2024/03/03 03:50:55;;;;;;;;;;;;;;;;;;5067562;28;20410;-67
2024/03/03 03:53:21;;;;;;;;;;;;;;;;;;5071601;28;19920;-67
2024/03/03 03:55:47;;;;;;;;;;;;;;;;;;5073226;28;19936;-67
2024/03/03 03:58:13;;;;;;;;;;;;;;;;;;5066081;28;19920;-67
2024/03/03 04:00:39;;;;;;;;;;;;;;;;;;5067937;28;19952;-67
2024/03/03 04:03:06;;;;;;;;;;;;;;;;;;5069649;28;19927;-67
2024/03/03 04:05:32;;;;;;;;;;;;;;;;;;5069814;28;20074;-68
2024/03/03 04:07:57;;;;;;;;;;;;;;;;;;5071681;28;20007;-68
2024/03/03 04:10:23;;;;;;;;;;;;;;;;;;5061486;28;19920;-68
2024/03/03 04:12:49;;;;;;;;;;;;;;;;;;5069722;28;20362;-68
2024/03/03 04:15:15;;;;;;;;;;;;;;;;;;5062720;28;19925;-68
2024/03/03 04:17:41;;;;;;;;;;;;;;;;;;5065800;28;19967;-68
2024/03/03 04:20:08;;;;;;;;;;;;;;;;;;5069912;28;19924;-68
2024/03/03 04:22:34;;;;;;;;;;;;;;;;;;5067048;28;19925;-68
2024/03/03 04:25:00;;;;;;;;;;;;;;;;;;5067371;28;19927;-69
2024/03/03 04:27:26;;;;;;;;;;;;;;;;;;5069786;28;19920;-68
2024/03/03 04:29:52;;;;;;;;;;;;;;;;;;5067390;28;19971;-68
2024/03/03 04:32:18;;;;;;;;;;;;;;;;;;5068602;28;19920;-68
2024/03/03 04:34:44;;;;;;;;;;;;;;;;;;5069449;28;19924;-68
2024/03/03 04:37:10;;;;;;;;;;;;;;;;;;5070937;28;19927;-68
2024/03/03 04:39:36;;;;;;;;;;;;;;;;;;5069991;28;19974;-68
2024/03/03 04:42:02;;;;;;;;;;;;;;;;;;5069549;28;19924;-68
2024/03/03 04:44:28;;;;;;;;;;;;;;;;;;5070180;28;19943;-68
2024/03/03 04:46:54;;;;;;;;;;;;;;;;;;5063580;28;20292;-68
2024/03/03 04:49:20;;;;;;;;;;;;;;;;;;5067323;28;19924;-68
2024/03/03 04:51:46;;;;;;;;;;;;;;;;;;5068964;28;19920;-68
2024/03/03 04:54:12;;;;;;;;;;;;;;;;;;5069446;28;19989;-68
2024/03/03 04:56:38;;;;;;;;;;;;;;;;;;5070916;28;19990;-68
2024/03/03 04:59:03;;;;;;;;;;;;;;;;;;5070772;28;19958;-68
2024/03/03 05:01:29;;;;;;;;;;;;;;;;;;5065168;28;19921;-68
2024/03/03 05:03:56;;;;;;;;;;;;;;;;;;5068145;28;20366;-68
2024/03/03 05:06:22;;;;;;;;;;;;;;;;;;5066641;28;20438;-68
2024/03/03 05:08:48;;;;;;;;;;;;;;;;;;5073215;28;19967;-66
2024/03/03 05:11:14;;;;;;;;;;;;;;;;;;5069107;28;20285;-66
2024/03/03 05:13:40;;;;;;;;;;;;;;;;;;5071662;28;19924;-66
2024/03/03 05:16:06;;;;;;;;;;;;;;;;;;5071126;28;20593;-67
2024/03/03 05:18:32;;;;;;;;;;;;;;;;;;5069831;28;20349;-67
2024/03/03 05:20:58;;;;;;;;;;;;;;;;;;5073634;28;19924;-67
2024/03/03 05:23:24;;;;;;;;;;;;;;;;;;5073104;28;20274;-68
2024/03/03 05:25:50;;;;;;;;;;;;;;;;;;5073812;28;19921;-67
2024/03/03 05:28:16;;;;;;;;;;;;;;;;;;5072460;28;19920;-66
2024/03/03 05:30:42;;;;;;;;;;;;;;;;;;5071870;28;20019;-67
2024/03/03 05:33:08;;;;;;;;;;;;;;;;;;5084940;28;19928;-67
2024/03/03 05:35:34;;;;;;;;;;;;;;;;;;5073805;28;19926;-67
2024/03/03 05:38:00;;;;;;;;;;;;;;;;;;5074009;28;19974;-67
2024/03/03 05:40:27;;;;;;;;;;;;;;;;;;5071789;28;19936;-67
2024/03/03 05:42:53;;;;;;;;;;;;;;;;;;5071228;28;20425;-67
2024/03/03 05:45:18;;;;;;;;;;;;;;;;;;5072357;28;19947;-67
2024/03/03 05:47:44;;;;;;;;;;;;;;;;;;5071367;28;20394;-67
2024/03/03 05:50:10;;;;;;;;;;;;;;;;;;5072771;28;20279;-67
2024/03/03 05:52:36;;;;;;;;;;;;;;;;;;5070551;28;19920;-67
2024/03/03 05:55:05;;;;;;;;;;;;;;;;;;5067000;28;20011;-67
2024/03/03 05:57:31;;;;;;;;;;;;;;;;;;5054311;28;19997;-67
2024/03/03 05:59:57;;;;;;;;;;;;;;;;;;5072565;28;19928;-67
2024/03/03 06:02:23;;;;;;;;;;;;;;;;;;5052893;28;19924;-67
2024/03/03 06:04:49;;;;;;;;;;;;;;;;;;5071453;28;19924;-68
2024/03/03 06:07:15;;;;;;;;;;;;;;;;;;5069761;28;19921;-68
2024/03/03 06:09:41;;;;;;;;;;;;;;;;;;5074075;28;19942;-67
2024/03/03 06:12:07;;;;;;;;;;;;;;;;;;5069803;28;20366;-68
2024/03/03 06:14:33;;;;;;;;;;;;;;;;;;5069194;28;19920;-67
2024/03/03 06:16:59;;;;;;;;;;;;;;;;;;5070183;28;19928;-68
2024/03/03 06:19:26;;;;;;;;;;;;;;;;;;5071188;28;19932;-67
2024/03/03 06:21:52;;;;;;;;;;;;;;;;;;5068725;28;20024;-67
2024/03/03 06:24:18;;;;;;;;;;;;;;;;;;5071717;28;20011;-67
2024/03/03 06:26:44;;;;;;;;;;;;;;;;;;5071544;28;20445;-67
2024/03/03 06:29:10;;;;;;;;;;;;;;;;;;5072150;28;19977;-67
2024/03/03 06:31:36;;;;;;;;;;;;;;;;;;5073426;28;19966;-67
2024/03/03 06:34:02;;;;;;;;;;;;;;;;;;5070941;28;19964;-67
2024/03/03 06:36:28;;;;;;;;;;;;;;;;;;5071443;28;20394;-68
2024/03/03 06:38:56;;;;;;;;;;;;;;;;;;5071743;28;19931;-67
2024/03/03 06:41:22;;;;;;;;;;;;;;;;;;5073250;28;19935;-67
2024/03/03 06:43:48;;;;;;;;;;;;;;;;;;5071703;28;19920;-66
2024/03/03 06:46:14;;;;;;;;;;;;;;;;;;5073175;28;19925;-68
2024/03/03 06:48:40;;;;;;;;;;;;;;;;;;5072979;28;20015;-67
2024/03/03 06:51:06;;;;;;;;;;;;;;;;;;5064209;28;20315;-67
2024/03/03 06:53:32;;;;;;;;;;;;;;;;;;5073050;28;19920;-67
2024/03/03 06:55:58;;;;;;;;;;;;;;;;;;5071502;28;20655;-68
2024/03/03 06:58:24;;;;;;;;;;;;;;;;;;5072831;28;19929;-68
2024/03/03 07:00:51;;;;;;;;;;;;;;;;;;5068812;28;19935;-68
2024/03/03 07:03:49;;;;;;;;;;;;;;;;;;5065064;28;20381;-68
2024/03/03 07:06:15;;;;;;;;;;;;;;;;;;5066993;28;19928;-68
2024/03/03 07:08:41;;;;;;;;;;;;;;;;;;5070613;28;20293;-67
2024/03/03 07:11:07;;;;;;;;;;;;;;;;;;5068371;28;20015;-67
2024/03/03 07:13:33;;;;;;;;;;;;;;;;;;5070554;28;19925;-67
2024/03/03 07:15:59;;;;;;;;;;;;;;;;;;5074834;28;19920;-67
2024/03/03 07:18:24;;;;;;;;;;;;;;;;;;5069160;28;19932;-67
2024/03/03 07:20:50;;;;;;;;;;;;;;;;;;5064040;28;19936;-67
2024/03/03 07:23:16;;;;;;;;;;;;;;;;;;5076107;28;20377;-68
2024/03/03 07:25:42;;;;;;;;;;;;;;;;;;5069868;28;19942;-67
2024/03/03 07:28:08;;;;;;;;;;;;;;;;;;5071828;28;19968;-67
2024/03/03 07:30:36;;;;;;;;;;;;;;;;;;5074840;28;20234;-67
2024/03/03 07:33:02;;;;;;;;;;;;;;;;;;5067953;28;19946;-66
2024/03/03 07:35:28;;;;;;;;;;;;;;;;;;5074824;28;19928;-67
2024/03/03 07:37:54;;;;;;;;;;;;;;;;;;5069805;28;19924;-67
2024/03/03 07:40:20;;;;;;;;;;;;;;;;;;5064530;28;20007;-67
2024/03/03 07:42:46;;;;;;;;;;;;;;;;;;5069473;28;20326;-67
2024/03/03 07:45:12;;;;;;;;;;;;;;;;;;5068927;28;20166;-67
2024/03/03 07:47:38;;;;;;;;;;;;;;;;;;5080901;28;20015;-67
2024/03/03 07:50:04;;;;;;;;;;;;;;;;;;5068527;28;19946;-67
2024/03/03 07:52:30;;;;;;;;;;;;;;;;;;5071222;28;19920;-69
2024/03/03 07:54:56;;;;;;;;;;;;;;;;;;5069338;28;20481;-65
2024/03/03 07:57:22;;;;;;;;;;;;;;;;;;5068730;28;19932;-67
2024/03/03 07:59:48;;;;;;;;;;;;;;;;;;5071528;28;20526;-66
2024/03/03 08:02:14;;;;;;;;;;;;;;;;;;5066677;28;19920;-65
2024/03/03 08:04:40;;;;;;;;;;;;;;;;;;5068006;28;19970;-65
2024/03/03 08:07:06;;;;;;;;;;;;;;;;;;5067481;28;19928;-65
2024/03/03 08:09:32;;;;;;;;;;;;;;;;;;5092621;22;20450;-64
2024/03/03 08:11:58;;;;;;;;;;;;;;;;;;5081115;28;20254;-64
2024/03/03 08:14:24;;;;;;;;;;;;;;;;;;5085744;28;19931;-64
2024/03/03 08:16:50;;;;;;;;;;;;;;;;;;5088329;28;20257;-64
2024/03/03 08:19:16;;;;;;;;;;;;;;;;;;5086231;28;19928;-65
2024/03/03 08:21:42;;;;;;;;;;;;;;;;;;5089784;28;19928;-66
2024/03/03 08:24:08;;;;;;;;;;;;;;;;;;5086099;28;20377;-66
2024/03/03 08:26:35;;;;;;;;;;;;;;;;;;5081340;28;19928;-65
2024/03/03 08:29:03;;;;;;;;;;;;;;;;;;5089568;28;19928;-65
2024/03/03 08:31:30;;;;;;;;;;;;;;;;;;5091434;28;20007;-65
2024/03/03 08:33:56;;;;;;;;;;;;;;;;;;5072038;28;19989;-65
2024/03/03 08:36:22;;;;;;;;;;;;;;;;;;5089105;28;20384;-65
2024/03/03 08:38:48;;;;;;;;;;;;;;;;;;5079549;28;19943;-65
2024/03/03 08:41:15;;;;;;;;;;;;;;;;;;5079713;28;19928;-65
2024/03/03 08:43:41;;;;;;;;;;;;;;;;;;5080191;28;19924;-66
2024/03/03 08:46:06;;;;;;;;;;;;;;;;;;5086884;28;19930;-65
2024/03/03 08:48:32;;;;;;;;;;;;;;;;;;5087479;28;19978;-65
2024/03/03 08:50:58;;;;;;;;;;;;;;;;;;5083167;28;19920;-65
2024/03/03 08:53:25;;;;;;;;;;;;;;;;;;5086954;28;19924;-65
2024/03/03 08:55:51;;;;;;;;;;;;;;;;;;5083229;28;19932;-65
2024/03/03 08:58:19;;;;;;;;;;;;;;;;;;5083856;28;20289;-65
2024/03/03 09:00:45;;;;;;;;;;;;;;;;;;5084785;28;19931;-65
2024/03/03 09:03:11;;;;;;;;;;;;;;;;;;5082918;28;20379;-65
2024/03/03 09:05:37;;;;;;;;;;;;;;;;;;5087727;28;19989;-66
2024/03/03 09:08:03;;;;;;;;;;;;;;;;;;5086565;28;20716;-65
2024/03/03 09:10:29;;;;;;;;;;;;;;;;;;5087376;28;19928;-65
2024/03/03 09:12:55;;;;;;;;;;;;;;;;;;5086970;28;19971;-65
2024/03/03 09:15:21;;;;;;;;;;;;;;;;;;5083860;28;19931;-65
2024/03/03 09:17:47;;;;;;;;;;;;;;;;;;5085849;28;20648;-65
2024/03/03 09:20:13;;;;;;;;;;;;;;;;;;5089854;28;19928;-65
2024/03/03 09:22:39;;;;;;;;;;;;;;;;;;5088814;28;19981;-65
2024/03/03 09:25:05;;;;;;;;;;;;;;;;;;5077856;28;19920;-65
2024/03/03 09:27:31;;;;;;;;;;;;;;;;;;5086199;28;20262;-65
2024/03/03 09:29:58;;;;;;;;;;;;;;;;;;5085312;28;19931;-65
2024/03/03 09:32:24;;;;;;;;;;;;;;;;;;5083427;28;19927;-65
2024/03/03 09:34:50;;;;;;;;;;;;;;;;;;5086645;28;19928;-65
2024/03/03 09:37:16;;;;;;;;;;;;;;;;;;5088454;28;19924;-65
2024/03/03 09:39:42;;;;;;;;;;;;;;;;;;5087264;28;19920;-66
2024/03/03 09:42:08;;;;;;;;;;;;;;;;;;5089145;28;20330;-65
2024/03/03 09:44:34;;;;;;;;;;;;;;;;;;5090082;28;20276;-65
2024/03/03 09:47:00;;;;;;;;;;;;;;;;;;5088336;28;20065;-65
2024/03/03 09:49:26;;;;;;;;;;;;;;;;;;5088639;28;19925;-65
2024/03/03 09:51:52;;;;;;;;;;;;;;;;;;5085692;28;19977;-65
2024/03/03 09:54:20;;;;;;;;;;;;;;;;;;5082366;28;19931;-65
2024/03/03 09:56:47;;;;;;;;;;;;;;;;;;5091282;28;19961;-66
2024/03/03 09:59:14;;;;;;;;;;;;;;;;;;5086098;28;20544;-66
2024/03/03 10:01:40;;;;;;;;;;;;;;;;;;5087152;28;20389;-65
2024/03/03 10:04:06;;;;;;;;;;;;;;;;;;5090123;28;19931;-65
2024/03/03 10:06:32;;;;;;;;;;;;;;;;;;5082526;28;21093;-65
2024/03/03 10:08:58;;;;;;;;;;;;;;;;;;5092335;28;20011;-66
2024/03/03 10:11:24;;;;;;;;;;;;;;;;;;5090195;28;20388;-66
2024/03/03 10:13:50;;;;;;;;;;;;;;;;;;5091431;28;19924;-65
2024/03/03 10:16:16;;;;;;;;;;;;;;;;;;5081143;28;19928;-66
2024/03/03 10:18:42;;;;;;;;;;;;;;;;;;5092345;28;19920;-66
2024/03/03 10:21:08;;;;;;;;;;;;;;;;;;5093454;28;19924;-65
2024/03/03 10:23:34;;;;;;;;;;;;;;;;;;5091645;28;19920;-66
2024/03/03 10:26:00;;;;;;;;;;;;;;;;;;5093587;28;19947;-66
2024/03/03 10:28:27;;;;;;;;;;;;;;;;;;5090398;28;19920;-65
2024/03/03 10:30:53;;;;;;;;;;;;;;;;;;5089914;28;19928;-65
2024/03/03 10:33:19;;;;;;;;;;;;;;;;;;5089614;28;19969;-65
2024/03/03 10:35:45;;;;;;;;;;;;;;;;;;5089032;28;20254;-65
2024/03/03 10:38:11;;;;;;;;;;;;;;;;;;5091899;28;19945;-65
2024/03/03 10:40:37;;;;;;;;;;;;;;;;;;5090444;28;19928;-66
2024/03/03 10:43:03;;;;;;;;;;;;;;;;;;5091580;28;20011;-65
2024/03/03 10:45:29;;;;;;;;;;;;;;;;;;5089164;28;20014;-66
2024/03/03 10:47:55;;;;;;;;;;;;;;;;;;5090398;28;20026;-66
2024/03/03 10:50:21;;;;;;;;;;;;;;;;;;5089843;28;19997;-66
2024/03/03 10:52:47;;;;;;;;;;;;;;;;;;5106025;27;20329;-66
2024/03/03 10:55:13;;;;;;;;;;;;;;;;;;5091864;28;19924;-65
2024/03/03 10:57:39;;;;;;;;;;;;;;;;;;5086553;28;19920;-66
2024/03/03 11:00:06;;;;;;;;;;;;;;;;;;5082909;28;19920;-66
2024/03/03 11:02:32;;;;;;;;;;;;;;;;;;5088933;28;19935;-66
2024/03/03 11:04:58;;;;;;;;;;;;;;;;;;5090370;28;19924;-66
2024/03/03 11:07:24;;;;;;;;;;;;;;;;;;5084973;28;19928;-65
2024/03/03 11:09:50;;;;;;;;;;;;;;;;;;5083054;28;19927;-65
2024/03/03 11:12:16;;;;;;;;;;;;;;;;;;5090616;28;19928;-66
2024/03/03 11:14:42;;;;;;;;;;;;;;;;;;5090986;28;19924;-66
2024/03/03 11:17:08;;;;;;;;;;;;;;;;;;5087896;28;20361;-66
2024/03/03 11:19:34;;;;;;;;;;;;;;;;;;5090257;28;19924;-65
2024/03/03 11:22:03;;;;;;;;;;;;;;;;;;5087523;28;19928;-64
2024/03/03 11:24:30;;;;;;;;;;;;;;;;;;5082728;28;19920;-64
2024/03/03 11:26:56;;;;;;;;;;;;;;;;;;5080191;28;19964;-65
2024/03/03 11:29:22;;;;;;;;;;;;;;;;;;5076162;28;22027;-65
2024/03/03 11:31:48;;;;;;;;;;;;;;;;;;5077166;28;20970;-65
2024/03/03 11:34:15;;;;;;;;;;;;;;;;;;5088566;28;19935;-65
2024/03/03 11:36:41;;;;;;;;;;;;;;;;;;5088043;28;19924;-65
2024/03/03 11:39:09;;;;;;;;;;;;;;;;;;5090978;28;20396;-66
2024/03/03 11:41:38;;;;;;;;;;;;;;;;;;5085591;28;20484;-66
2024/03/03 11:44:04;;;;;;;;;;;;;;;;;;5088555;28;19924;-66
2024/03/03 11:46:31;;;;;;;;;;;;;;;;;;5089638;28;19946;-66
2024/03/03 11:48:57;;;;;;;;;;;;;;;;;;5081581;28;19924;-65
2024/03/03 11:51:24;;;;;;;;;;;;;;;;;;5089279;28;19935;-65
2024/03/03 11:53:50;;;;;;;;;;;;;;;;;;5080084;28;19920;-65
2024/03/03 11:56:16;;;;;;;;;;;;;;;;;;5087190;28;19968;-65
2024/03/03 11:58:43;;;;;;;;;;;;;;;;;;5088888;28;19931;-65
2024/03/03 12:01:09;;;;;;;;;;;;;;;;;;5087693;28;19929;-65
2024/03/03 12:03:35;;;;;;;;;;;;;;;;;;5088472;28;19924;-66
2024/03/03 12:06:01;;;;;;;;;;;;;;;;;;5091904;28;20366;-66
2024/03/03 12:08:27;;;;;;;;;;;;;;;;;;5089366;28;19930;-66
2024/03/03 12:10:53;;;;;;;;;;;;;;;;;;5087765;28;19927;-66
2024/03/03 12:13:19;;;;;;;;;;;;;;;;;;5091429;28;20003;-66
2024/03/03 12:15:47;;;;;;;;;;;;;;;;;;5092133;28;20365;-66
2024/03/03 12:18:13;;;;;;;;;;;;;;;;;;5086124;28;19927;-64
2024/03/03 12:20:40;;;;;;;;;;;;;;;;;;5080668;28;20285;-65
2024/03/03 12:23:06;;;;;;;;;;;;;;;;;;5082533;28;19939;-66
2024/03/03 12:25:32;;;;;;;;;;;;;;;;;;5073119;28;20377;-66
2024/03/03 12:27:59;;;;;;;;;;;;;;;;;;5083515;28;19938;-66
2024/03/03 12:30:25;;;;;;;;;;;;;;;;;;5088746;28;19924;-65
2024/03/03 12:32:51;;;;;;;;;;;;;;;;;;5089335;28;20365;-66
2024/03/03 12:35:17;;;;;;;;;;;;;;;;;;5087205;28;19920;-66
2024/03/03 12:37:43;;;;;;;;;;;;;;;;;;5085002;28;19931;-66
2024/03/03 12:40:09;;;;;;;;;;;;;;;;;;5088084;28;19969;-66
2024/03/03 12:42:35;;;;;;;;;;;;;;;;;;5082568;28;20019;-66
2024/03/03 12:45:01;;;;;;;;;;;;;;;;;;5082217;28;19924;-67
2024/03/03 12:47:27;;;;;;;;;;;;;;;;;;5090256;28;19986;-66
2024/03/03 12:49:53;;;;;;;;;;;;;;;;;;5088031;28;19995;-66
2024/03/03 12:52:19;;;;;;;;;;;;;;;;;;5083455;28;19920;-65
2024/03/03 12:54:45;;;;;;;;;;;;;;;;;;5089373;28;20277;-65
2024/03/03 12:57:11;;;;;;;;;;;;;;;;;;5090949;28;20617;-66
2024/03/03 12:59:37;;;;;;;;;;;;;;;;;;5098278;28;20014;-66
2024/03/03 13:02:03;;;;;;;;;;;;;;;;;;5088019;28;20027;-66
2024/03/03 13:04:32;;;;;;;;;;;;;;;;;;5089778;28;19928;-66
2024/03/03 13:06:58;;;;;;;;;;;;;;;;;;5093861;28;19923;-66
2024/03/03 13:09:24;;;;;;;;;;;;;;;;;;5088661;28;19927;-67
2024/03/03 13:11:50;;;;;;;;;;;;;;;;;;5091885;28;19919;-66
2024/03/03 13:14:16;;;;;;;;;;;;;;;;;;5085788;28;19925;-66
2024/03/03 13:16:42;;;;;;;;;;;;;;;;;;5093301;28;19990;-66
2024/03/03 13:19:08;;;;;;;;;;;;;;;;;;5101626;28;19926;-65
2024/03/03 13:21:36;;;;;;;;;;;;;;;;;;5084047;28;20318;-65
2024/03/03 13:24:02;;;;;;;;;;;;;;;;;;5085102;28;19974;-65
2024/03/03 13:26:28;;;;;;;;;;;;;;;;;;5078014;28;19938;-65
2024/03/03 13:28:54;;;;;;;;;;;;;;;;;;5087091;28;19931;-66
2024/03/03 13:31:20;;;;;;;;;;;;;;;;;;5091257;28;20567;-66
2024/03/03 13:33:46;;;;;;;;;;;;;;;;;;5075571;28;19943;-65
2024/03/03 13:36:12;;;;;;;;;;;;;;;;;;5094504;28;19988;-65
2024/03/03 13:38:38;;;;;;;;;;;;;;;;;;5094022;28;19920;-65
2024/03/03 13:41:04;;;;;;;;;;;;;;;;;;5091541;28;19931;-65
2024/03/03 13:43:32;;;;;;;;;;;;;;;;;;5090367;28;19920;-66
2024/03/03 13:45:58;;;;;;;;;;;;;;;;;;5084064;28;19963;-66
2024/03/03 13:48:24;;;;;;;;;;;;;;;;;;5092391;28;19920;-66
2024/03/03 13:50:50;;;;;;;;;;;;;;;;;;5089918;28;19924;-66
2024/03/03 13:53:16;;;;;;;;;;;;;;;;;;5092138;28;20334;-66
2024/03/03 13:55:42;;;;;;;;;;;;;;;;;;5084593;28;19973;-66
2024/03/03 13:58:09;;;;;;;;;;;;;;;;;;5088562;28;19962;-66
2024/03/03 14:00:35;;;;;;;;;;;;;;;;;;5085935;28;19966;-66
2024/03/03 14:03:04;;;;;;;;;;;;;;;;;;5092135;28;19924;-66
2024/03/03 14:05:30;;;;;;;;;;;;;;;;;;5084950;28;19924;-66
2024/03/03 14:07:56;;;;;;;;;;;;;;;;;;5087292;28;19928;-66
2024/03/03 14:10:22;;;;;;;;;;;;;;;;;;5081019;28;19931;-66
2024/03/03 14:12:48;;;;;;;;;;;;;;;;;;5087381;28;19935;-66
2024/03/03 14:15:14;;;;;;;;;;;;;;;;;;5089254;28;19920;-66
2024/03/03 14:17:40;;;;;;;;;;;;;;;;;;5088465;28;20026;-65
2024/03/03 14:20:12;;;;;;;;;;;;;;;;;;5092396;28;20288;-65
2024/03/03 14:22:38;;;;;;;;;;;;;;;;;;5091870;28;20530;-66
2024/03/03 14:25:04;;;;;;;;;;;;;;;;;;5090770;28;20393;-66
2024/03/03 14:27:30;;;;;;;;;;;;;;;;;;5087791;28;20448;-66
2024/03/03 14:29:56;;;;;;;;;;;;;;;;;;5091157;28;19924;-66
2024/03/03 14:32:22;;;;;;;;;;;;;;;;;;5092162;28;19923;-66
2024/03/03 14:34:49;;;;;;;;;;;;;;;;;;5094051;28;19920;-66
2024/03/03 14:37:15;;;;;;;;;;;;;;;;;;5091434;28;19924;-65
2024/03/03 14:39:41;;;;;;;;;;;;;;;;;;5092352;28;19931;-65
2024/03/03 14:42:08;;;;;;;;;;;;;;;;;;5090272;28;19947;-65
2024/03/03 14:44:35;;;;;;;;;;;;;;;;;;5087524;28;20016;-66
2024/03/03 14:47:01;;;;;;;;;;;;;;;;;;5092787;28;20433;-65
2024/03/03 14:49:27;;;;;;;;;;;;;;;;;;5093408;28;19924;-66
2024/03/03 14:51:54;;;;;;;;;;;;;;;;;;5089909;28;19921;-66
2024/03/03 14:54:20;;;;;;;;;;;;;;;;;;5091479;28;19967;-66
2024/03/03 14:56:46;;;;;;;;;;;;;;;;;;5081958;28;19943;-66
2024/03/03 14:59:13;;;;;;;;;;;;;;;;;;5099565;28;20579;-66
2024/03/03 15:01:39;;;;;;;;;;;;;;;;;;5084176;28;19935;-66
2024/03/03 15:04:05;;;;;;;;;;;;;;;;;;5085142;28;19924;-66
2024/03/03 15:06:30;;;;;;;;;;;;;;;;;;5091359;28;19928;-66
2024/03/03 15:08:56;;;;;;;;;;;;;;;;;;5092476;28;19924;-66
2024/03/03 15:11:23;;;;;;;;;;;;;;;;;;5091795;28;20366;-66
2024/03/03 15:16:52;;;;;;;;;;;;;;;;;;5055686;28;20017;-65
2024/03/03 15:19:18;;;;;;;;;;;;;;;;;;5089522;28;20356;-66
2024/03/03 15:21:44;;;;;;;;;;;;;;;;;;5095098;28;20005;-66
2024/03/03 15:24:10;;;;;;;;;;;;;;;;;;5083763;28;19932;-67
2024/03/03 15:26:36;;;;;;;;;;;;;;;;;;5073149;28;19920;-66
2024/03/03 15:29:04;;;;;;;;;;;;;;;;;;5074503;28;19958;-66
2024/03/03 15:31:30;;;;;;;;;;;;;;;;;;5089305;28;19924;-66
2024/03/03 15:33:56;;;;;;;;;;;;;;;;;;5081431;28;20411;-66
2024/03/03 15:36:21;;;;;;;;;;;;;;;;;;5080966;28;19932;-67
2024/03/03 15:38:47;;;;;;;;;;;;;;;;;;5084417;28;19973;-67
2024/03/03 15:41:13;;;;;;;;;;;;;;;;;;5085903;28;19931;-67
2024/03/03 15:43:39;;;;;;;;;;;;;;;;;;5091940;28;20014;-66
2024/03/03 15:46:05;;;;;;;;;;;;;;;;;;5085438;28;20018;-65
2024/03/03 15:48:31;;;;;;;;;;;;;;;;;;5084784;28;19977;-65
2024/03/03 15:50:57;;;;;;;;;;;;;;;;;;5082937;28;19989;-66
2024/03/03 15:53:23;;;;;;;;;;;;;;;;;;5079233;28;19920;-66
2024/03/03 15:55:49;;;;;;;;;;;;;;;;;;5085993;28;19924;-65
2024/03/03 15:58:15;;;;;;;;;;;;;;;;;;5088394;28;19920;-66
2024/03/03 16:00:42;;;;;;;;;;;;;;;;;;5091911;28;20278;-65
2024/03/03 16:03:08;;;;;;;;;;;;;;;;;;5087440;28;20335;-66
2024/03/03 16:05:34;;;;;;;;;;;;;;;;;;5088463;28;19920;-66
2024/03/03 16:08:02;;;;;;;;;;;;;;;;;;5088362;28;20004;-66
2024/03/03 16:10:28;;;;;;;;;;;;;;;;;;5083079;28;19962;-65
2024/03/03 16:12:54;;;;;;;;;;;;;;;;;;5081818;28;19963;-66
2024/03/03 16:15:21;;;;;;;;;;;;;;;;;;5085990;28;20001;-66
2024/03/03 16:17:47;;;;;;;;;;;;;;;;;;5089380;28;20292;-66
2024/03/03 16:20:14;;;;;;;;;;;;;;;;;;5081140;28;19925;-66
2024/03/03 16:22:42;;;;;;;;;;;;;;;;;;5084837;28;19928;-66
2024/03/03 16:25:08;;;;;;;;;;;;;;;;;;5090124;28;19959;-66
2024/03/03 16:27:35;;;;;;;;;;;;;;;;;;5084668;28;20375;-66
2024/03/03 16:30:00;;;;;;;;;;;;;;;;;;5097183;28;19920;-66
2024/03/03 16:32:26;;;;;;;;;;;;;;;;;;5089373;28;20011;-66
2024/03/03 16:34:52;;;;;;;;;;;;;;;;;;5082113;28;20511;-66
2024/03/03 16:37:18;;;;;;;;;;;;;;;;;;5087128;28;19920;-67
2024/03/03 16:39:44;;;;;;;;;;;;;;;;;;5088064;28;19946;-66
2024/03/03 16:42:10;;;;;;;;;;;;;;;;;;5078652;28;20042;-66